Time;durP1;ratioP1;P1;durP2;ratioP2;P2;SDS_P1;SDS_P2;PMS_P1;PMS_P2;Temp;Humidity;BMP_temperature;BMP_pressure;BME280_temperature;BME280_humidity;BME280_pressure;Samples;Min_cycle;Max_cycle;Signal;HPM_P1;HPM_P2
2023/05/24 00:01:15;;;;;;;14.63;11.80;;;;;;;15.29;78.42;98186.31;5049765;28;20150;-68
2023/05/24 00:03:41;;;;;;;16.13;11.57;;;;;;;15.26;78.57;98195.28;5049591;28;20548;-68
2023/05/24 00:06:06;;;;;;;15.82;11.95;;;;;;;15.25;78.47;98190.09;5049751;28;20021;-67
2023/05/24 00:08:32;;;;;;;17.48;12.38;;;;;;;15.25;78.28;98192.88;5049597;28;20541;-68
2023/05/24 00:10:59;;;;;;;16.13;12.43;;;;;;;15.23;78.43;98192.38;5050220;28;20100;-67
2023/05/24 00:13:24;;;;;;;14.45;12.00;;;;;;;15.23;78.61;98195.16;5053139;28;20729;-68
2023/05/24 00:15:50;;;;;;;16.05;11.10;;;;;;;15.21;79.25;98192.72;5053224;28;20120;-69
2023/05/24 00:18:18;;;;;;;15.70;12.50;;;;;;;15.18;79.58;98185.91;5052562;28;20039;-68
2023/05/24 00:20:44;;;;;;;16.27;11.95;;;;;;;15.19;78.45;98197.75;5056303;28;20013;-68
2023/05/24 00:23:10;;;;;;;17.95;12.02;;;;;;;15.20;78.63;98198.56;5053039;28;20021;-68
2023/05/24 00:25:35;;;;;;;15.10;11.48;;;;;;;15.20;78.96;98202.13;5053211;28;20108;-68
2023/05/24 00:28:00;;;;;;;15.15;11.98;;;;;;;15.21;78.78;98203.75;5053215;28;20029;-68
2023/05/24 00:30:26;;;;;;;15.45;11.45;;;;;;;15.20;78.68;98204.09;5053043;28;20025;-67
2023/05/24 00:32:51;;;;;;;15.70;11.82;;;;;;;15.17;79.09;98203.63;5053231;28;20029;-67
2023/05/24 00:35:17;;;;;;;13.23;10.95;;;;;;;15.14;79.24;98198.75;5052972;28;20032;-68
2023/05/24 00:37:44;;;;;;;16.02;11.52;;;;;;;15.10;78.90;98206.09;5053117;28;20013;-68
2023/05/24 00:40:10;;;;;;;14.63;11.88;;;;;;;15.08;79.12;98202.84;5043052;28;20037;-69
2023/05/24 00:42:35;;;;;;;16.83;12.13;;;;;;;15.06;79.59;98202.38;5049769;28;20104;-69
2023/05/24 00:45:01;;;;;;;15.73;11.20;;;;;;;15.03;79.97;98203.88;5052505;28;20584;-68
2023/05/24 00:47:26;;;;;;;15.57;10.45;;;;;;;15.01;78.94;98203.38;5052880;28;20213;-68
2023/05/24 00:49:52;;;;;;;13.13;10.52;;;;;;;15.00;79.63;98206.47;5052497;28;20021;-68
2023/05/24 00:52:18;;;;;;;13.40;11.10;;;;;;;14.97;79.47;98215.41;5052300;28;20033;-68
2023/05/24 00:54:43;;;;;;;12.75;9.60;;;;;;;14.97;79.67;98204.34;5052703;28;20021;-67
2023/05/24 00:57:12;;;;;;;13.75;10.60;;;;;;;14.97;79.05;98212.66;5052516;28;20151;-68
2023/05/24 00:59:38;;;;;;;13.32;10.57;;;;;;;14.98;79.52;98217.03;5052850;28;20067;-68
2023/05/24 01:02:04;;;;;;;13.77;10.50;;;;;;;14.99;79.32;98211.19;5052293;28;20048;-68
2023/05/24 01:04:32;;;;;;;13.48;10.85;;;;;;;15.00;79.18;98223.03;5045258;28;20026;-68
2023/05/24 01:07:25;;;;;;;12.68;10.23;;;;;;;14.99;79.41;98224.16;5048466;28;20021;-68
2023/05/24 01:10:03;;;;;;;13.35;10.43;;;;;;;14.97;78.99;98219.00;5052180;28;20025;-68
2023/05/24 01:12:50;;;;;;;13.48;10.40;;;;;;;14.97;79.52;98226.44;5044847;28;20057;-68
2023/05/24 01:15:53;;;;;;;13.85;10.48;;;;;;;14.96;79.24;98219.31;5047725;28;20131;-68
2023/05/24 01:18:30;;;;;;;14.35;11.10;;;;;;;14.96;80.12;98219.31;5044533;28;20060;-68
2023/05/24 01:21:14;;;;;;;12.95;11.20;;;;;;;14.93;79.61;98220.78;5046168;28;20037;-68
2023/05/24 01:23:51;;;;;;;14.20;10.95;;;;;;;14.94;79.46;98232.63;5050198;28;20049;-68
2023/05/24 01:26:25;;;;;;;14.30;10.32;;;;;;;14.95;79.44;98231.50;5052169;28;20377;-68
2023/05/24 01:28:52;;;;;;;14.60;11.15;;;;;;;14.95;80.04;98235.09;5041031;28;20029;-69
2023/05/24 01:31:19;;;;;;;14.35;10.63;;;;;;;14.92;79.68;98230.22;5037042;28;20036;-68
2023/05/24 01:33:44;;;;;;;13.30;9.90;;;;;;;14.94;80.11;98238.16;5034046;28;20035;-69
2023/05/24 01:36:09;;;;;;;13.40;10.27;;;;;;;14.93;79.12;98233.78;5033641;28;20033;-68
2023/05/24 01:38:36;;;;;;;14.68;10.80;;;;;;;14.97;79.80;98226.44;5041694;28;20381;-68
2023/05/24 01:41:25;;;;;;;13.05;9.75;;;;;;;14.99;79.99;98236.03;5041546;28;20052;-68
2023/05/24 01:44:12;;;;;;;13.82;10.25;;;;;;;14.99;79.88;98236.03;5034233;28;20091;-69
2023/05/24 01:46:38;;;;;;;16.25;11.52;;;;;;;14.98;79.49;98234.41;5041614;28;20393;-68
2023/05/24 01:49:17;;;;;;;14.77;11.63;;;;;;;14.99;79.44;98230.53;5043793;28;20038;-69
2023/05/24 01:51:52;;;;;;;14.90;11.90;;;;;;;15.00;79.37;98234.06;5034585;28;20037;-69
2023/05/24 01:54:21;;;;;;;13.65;10.82;;;;;;;15.01;79.35;98224.66;5052314;28;20143;-68
2023/05/24 01:56:47;;;;;;;;;;;;;;;15.03;78.95;98233.41;5052922;28;20500;-69
2023/05/24 01:59:14;;;;;;;13.88;10.57;;;;;;;15.01;80.07;98231.00;5047663;28;20011;-68
2023/05/24 02:01:40;;;;;;;16.45;11.82;;;;;;;14.98;79.48;98233.59;5050656;28;20041;-69
2023/05/24 02:04:06;;;;;;;13.85;11.10;;;;;;;14.96;79.73;98238.63;5033772;28;20029;-68
2023/05/24 02:06:31;;;;;;;13.52;10.48;;;;;;;14.95;79.66;98242.53;5032889;28;20021;-69
2023/05/24 02:08:56;;;;;;;15.57;11.40;;;;;;;14.97;79.51;98234.72;5039598;28;20036;-69
2023/05/24 02:11:22;;;;;;;12.80;10.55;;;;;;;14.96;79.73;98244.16;5051721;28;20081;-68
2023/05/24 02:13:47;;;;;;;17.08;11.60;;;;;;;14.94;80.26;98244.50;5050868;28;20033;-70
2023/05/24 02:16:13;;;;;;;16.38;12.07;;;;;;;14.95;80.03;98246.13;5044943;28;20308;-70
2023/05/24 02:18:39;;;;;;;16.83;12.10;;;;;;;14.96;79.63;98250.50;5037053;28;20056;-69
2023/05/24 02:21:04;;;;;;;13.70;10.95;;;;;;;14.96;79.50;98242.22;5046693;28;20032;-69
2023/05/24 02:23:30;;;;;;;14.57;10.82;;;;;;;14.98;79.50;98247.41;5032027;28;20033;-69
2023/05/24 02:25:56;;;;;;;14.85;11.98;;;;;;;14.99;79.63;98246.25;5038251;28;20051;-68
2023/05/24 02:28:21;;;;;;;15.55;13.45;;;;;;;14.98;79.80;98244.63;5051673;28;20095;-68
2023/05/24 02:30:46;;;;;;;16.00;12.82;;;;;;;14.97;80.05;98243.03;5052187;28;20099;-69
2023/05/24 02:33:12;;;;;;;17.17;12.00;;;;;;;14.96;79.88;98245.00;5051831;28;20036;-69
2023/05/24 02:35:40;;;;;;;17.80;12.18;;;;;;;14.97;80.14;98245.78;5048953;28;20539;-68
2023/05/24 02:38:05;;;;;;;17.42;12.45;;;;;;;14.98;80.01;98247.41;5058233;28;20036;-68
2023/05/24 02:40:31;;;;;;;16.15;12.68;;;;;;;14.98;79.46;98244.63;5071885;28;20543;-69
2023/05/24 02:42:56;;;;;;;16.33;12.20;;;;;;;14.98;80.22;98245.47;5057730;28;20029;-68
2023/05/24 02:45:22;;;;;;;17.92;13.00;;;;;;;14.96;79.79;98244.16;5052132;28;20461;-69
2023/05/24 02:47:47;;;;;;;16.52;12.93;;;;;;;14.95;79.67;98248.88;5051949;28;20037;-68
2023/05/24 02:50:13;;;;;;;15.70;12.55;;;;;;;14.95;79.86;98245.31;5050316;28;20116;-69
2023/05/24 02:52:39;;;;;;;17.25;12.65;;;;;;;14.98;80.20;98247.41;5051874;28;20033;-68
2023/05/24 02:55:05;;;;;;;17.02;12.80;;;;;;;15.00;80.34;98247.88;5051674;28;20071;-68
2023/05/24 02:57:32;;;;;;;15.50;12.48;;;;;;;15.00;80.11;98257.00;5051765;28;20021;-69
2023/05/24 02:59:58;;;;;;;17.75;12.68;;;;;;;15.01;80.22;98249.50;5051857;28;20033;-69
2023/05/24 03:02:27;;;;;;;16.73;12.65;;;;;;;15.03;80.22;98252.75;5051569;28;20552;-69
2023/05/24 03:04:52;;;;;;;16.73;12.85;;;;;;;15.05;80.15;98255.19;5046793;28;20117;-69
2023/05/24 03:07:18;;;;;;;15.40;12.20;;;;;;;15.07;79.93;98261.19;5060866;28;20103;-68
2023/05/24 03:09:43;;;;;;;16.30;12.80;;;;;;;15.08;80.19;98260.06;5070131;28;20032;-68
2023/05/24 03:12:08;;;;;;;17.30;12.88;;;;;;;15.06;80.08;98257.59;5036283;28;20537;-67
2023/05/24 03:14:34;;;;;;;17.95;13.35;;;;;;;15.05;80.25;98257.97;5041187;28;20036;-69
2023/05/24 03:16:59;;;;;;;16.42;13.13;;;;;;;15.04;80.32;98259.91;5052469;28;20039;-69
2023/05/24 03:19:24;;;;;;;16.58;12.55;;;;;;;15.01;80.13;98257.78;5031266;28;20075;-69
2023/05/24 03:21:50;;;;;;;94.75;41.85;;;;;;;14.95;80.68;98270.16;5031652;28;20536;-69
2023/05/24 03:24:15;;;;;;;22.98;17.42;;;;;;;14.86;81.10;98272.94;5031195;28;20116;-69
2023/05/24 03:26:40;;;;;;;28.98;21.17;;;;;;;14.78;80.85;98274.59;5042510;28;20064;-68
2023/05/24 03:29:06;;;;;;;19.10;13.82;;;;;;;14.74;81.41;98273.63;5050859;28;20135;-68
2023/05/24 03:31:31;;;;;;;18.02;13.43;;;;;;;14.67;80.31;98278.81;5040050;28;20470;-69
2023/05/24 03:33:57;;;;;;;16.10;12.20;;;;;;;14.60;81.40;98287.59;5051160;28;20025;-69
2023/05/24 03:36:24;;;;;;;15.77;11.52;;;;;;;14.52;80.76;98286.47;5050001;28;20036;-68
2023/05/24 03:38:50;;;;;;;15.18;11.38;;;;;;;14.47;81.10;98294.91;5051492;28;20029;-69
2023/05/24 03:41:15;;;;;;;16.45;11.25;;;;;;;14.43;80.74;98293.97;5049323;28;20439;-69
2023/05/24 03:43:40;;;;;;;13.32;9.90;;;;;;;14.40;81.01;98300.91;5050886;28;20080;-68
2023/05/24 03:46:06;;;;;;;13.45;10.32;;;;;;;14.40;81.08;98302.88;5047787;28;20036;-68
2023/05/24 03:48:31;;;;;;;11.60;9.38;;;;;;;14.35;81.37;98305.81;5035288;28;20090;-68
2023/05/24 03:50:56;;;;;;;13.45;8.45;;;;;;;14.26;81.30;98300.28;5038191;28;20032;-68
2023/05/24 03:53:22;;;;;;;10.82;7.20;;;;;;;14.20;81.71;98315.38;5054942;28;20033;-68
2023/05/24 03:55:47;;;;;;;11.38;7.60;;;;;;;14.05;81.80;98311.94;5054558;28;20152;-69
2023/05/24 03:58:13;;;;;;;10.25;7.75;;;;;;;13.88;81.66;98311.91;5054280;28;20025;-68
2023/05/24 04:00:38;;;;;;;8.82;6.80;;;;;;;13.74;81.77;98317.56;5044567;28;20037;-68
2023/05/24 04:03:05;;;;;;;11.38;7.28;;;;;;;13.63;81.92;98326.16;5034791;28;20029;-68
2023/05/24 04:05:31;;;;;;;8.45;6.22;;;;;;;13.55;82.36;98326.94;5034790;28;20036;-69
2023/05/24 04:07:56;;;;;;;9.60;6.25;;;;;;;13.45;81.92;98333.53;5035263;28;20021;-69
2023/05/24 04:10:22;;;;;;;9.38;6.53;;;;;;;13.37;81.86;98343.34;5041280;28;20041;-68
2023/05/24 04:12:48;;;;;;;8.63;6.25;;;;;;;13.32;82.62;98340.75;5051461;28;20108;-68
2023/05/24 04:15:14;;;;;;;8.85;5.60;;;;;;;13.27;82.43;98338.13;5035398;28;20032;-69
2023/05/24 04:17:41;;;;;;;8.30;5.60;;;;;;;13.23;82.13;98348.97;5038022;28;20034;-68
2023/05/24 04:20:08;;;;;;;8.45;5.65;;;;;;;13.18;83.18;98353.81;5035592;28;20116;-69
2023/05/24 04:22:35;;;;;;;6.20;4.63;;;;;;;13.05;82.43;98364.59;5035354;28;20478;-68
2023/05/24 04:25:03;;;;;;;4.75;4.10;;;;;;;13.01;82.09;98369.09;5034919;28;20075;-68
2023/05/24 04:27:30;;;;;;;5.90;4.13;;;;;;;13.00;82.78;98358.41;5041850;28;20017;-69
2023/05/24 04:29:55;;;;;;;6.07;4.30;;;;;;;12.96;83.29;98371.97;5052975;28;20399;-68
2023/05/24 04:32:22;;;;;;;7.50;4.40;;;;;;;12.91;82.77;98372.09;5046793;28;20017;-68
2023/05/24 04:34:47;;;;;;;6.28;4.20;;;;;;;12.89;82.39;98377.09;5042770;28;20033;-69
2023/05/24 04:37:15;;;;;;;5.93;4.22;;;;;;;12.88;83.12;98376.31;5053445;28;20017;-69
2023/05/24 04:39:42;;;;;;;4.90;3.92;;;;;;;12.86;83.36;98380.47;5052977;28;20443;-69
2023/05/24 04:42:07;;;;;;;7.55;4.03;;;;;;;12.83;83.27;98381.13;5053756;28;20033;-68
2023/05/24 04:44:33;;;;;;;7.00;4.30;;;;;;;12.77;82.84;98377.69;5052250;28;20477;-69
2023/05/24 04:47:00;;;;;;;7.57;4.07;;;;;;;12.75;82.94;98378.00;5053102;28;20028;-69
2023/05/24 04:49:25;;;;;;;6.03;4.43;;;;;;;12.74;83.00;98384.63;5049078;28;20029;-69
2023/05/24 04:51:51;;;;;;;5.90;4.30;;;;;;;12.68;83.51;98383.13;5053499;28;20370;-69
2023/05/24 04:54:17;;;;;;;5.18;3.65;;;;;;;12.61;83.28;98389.06;5038343;28;20040;-68
2023/05/24 04:56:42;;;;;;;6.32;4.15;;;;;;;12.56;82.71;98391.13;5033346;28;20039;-69
2023/05/24 04:59:08;;;;;;;5.70;3.72;;;;;;;12.52;82.73;98388.19;5045616;28;20033;-69
2023/05/24 05:01:33;;;;;;;5.57;3.67;;;;;;;12.48;82.55;98412.72;5035106;28;20350;-69
2023/05/24 05:03:59;;;;;;;5.57;3.58;;;;;;;12.45;82.85;98407.84;5034354;28;20030;-69
2023/05/24 05:06:25;;;;;;;5.88;3.67;;;;;;;12.43;82.45;98412.03;5033604;28;20095;-68
2023/05/24 05:08:51;;;;;;;5.95;3.28;;;;;;;12.40;82.31;98412.66;5033530;28;20051;-69
2023/05/24 05:11:17;;;;;;;8.05;5.30;;;;;;;12.40;82.49;98418.16;5033672;28;20068;-68
2023/05/24 05:13:43;;;;;;;5.93;5.32;;;;;;;12.32;82.63;98420.50;5042359;28;20057;-68
2023/05/24 05:16:09;;;;;;;7.78;5.32;;;;;;;12.27;82.22;98420.63;5049844;28;20061;-69
2023/05/24 05:18:34;;;;;;;6.90;6.20;;;;;;;12.27;82.15;98425.31;5048774;28;20040;-68
2023/05/24 05:21:01;;;;;;;8.30;6.90;;;;;;;12.25;82.18;98433.06;5041459;28;20021;-68
2023/05/24 05:23:27;;;;;;;8.32;5.60;;;;;;;12.16;81.59;98432.97;5033464;28;20025;-68
2023/05/24 05:25:52;;;;;;;8.38;6.22;;;;;;;12.12;81.63;98443.75;5033446;28;20040;-69
2023/05/24 05:28:18;;;;;;;8.07;5.75;;;;;;;12.11;81.60;98431.13;5036947;28;20032;-69
2023/05/24 05:30:43;;;;;;;7.15;6.20;;;;;;;12.14;81.88;98443.47;5051474;28;20354;-69
2023/05/24 05:33:09;;;;;;;9.05;7.22;;;;;;;12.14;82.19;98446.22;5051147;28;20086;-68
2023/05/24 05:35:34;;;;;;;10.65;7.80;;;;;;;12.06;81.64;98445.81;5052941;28;20036;-69
2023/05/24 05:38:00;;;;;;;8.82;6.85;;;;;;;12.03;81.73;98454.66;5053553;28;20366;-68
2023/05/24 05:40:25;;;;;;;9.38;7.05;;;;;;;11.98;82.46;98456.69;5008947;28;1228294;-69
2023/05/24 05:42:51;;;;;;;8.50;6.32;;;;;;;11.94;82.06;98461.16;5038952;28;20363;-69
2023/05/24 05:45:16;;;;;;;8.80;6.10;;;;;;;11.89;82.25;98457.41;5040056;28;20029;-68
2023/05/24 05:47:42;;;;;;;8.18;5.60;;;;;;;11.86;81.80;98465.41;5053982;28;20029;-69
2023/05/24 05:50:08;;;;;;;8.63;5.15;;;;;;;11.86;82.17;98462.66;5053392;28;20040;-69
2023/05/24 05:52:33;;;;;;;8.05;5.38;;;;;;;11.83;82.42;98466.03;5050403;28;20060;-68
2023/05/24 05:54:59;;;;;;;6.38;4.75;;;;;;;11.84;82.12;98465.72;5046466;28;20808;-69
2023/05/24 05:57:25;;;;;;;7.93;5.45;;;;;;;11.84;82.04;98468.47;5034804;28;20022;-69
2023/05/24 05:59:50;;;;;;;6.65;5.00;;;;;;;11.87;82.63;98472.53;5033946;28;20071;-69
2023/05/24 06:02:17;;;;;;;7.78;5.45;;;;;;;11.90;81.89;98471.94;5039126;28;20033;-68
2023/05/24 06:04:44;;;;;;;6.03;4.80;;;;;;;11.89;81.93;98473.88;5033790;28;20092;-69
2023/05/24 06:07:09;;;;;;;7.43;5.57;;;;;;;11.94;81.77;98483.16;5033627;28;20033;-68
2023/05/24 06:09:34;;;;;;;23.58;11.82;;;;;;;11.98;81.26;98478.69;5033000;28;20037;-69
2023/05/24 06:12:00;;;;;;;9.75;5.30;;;;;;;12.02;81.90;98479.72;5038428;28;20109;-68
2023/05/24 06:14:25;;;;;;;8.27;4.80;;;;;;;12.00;81.54;98487.47;5053262;28;20033;-67
2023/05/24 06:16:53;;;;;;;6.28;4.72;;;;;;;11.99;81.71;98496.78;5041573;28;20029;-68
2023/05/24 06:19:19;;;;;;;6.45;4.85;;;;;;;11.99;81.21;98496.78;5034334;28;20560;-68
2023/05/24 06:21:46;;;;;;;5.95;4.65;;;;;;;11.96;81.15;98498.19;5059053;28;20035;-69
2023/05/24 06:24:21;;;;;;;6.93;5.35;;;;;;;11.91;81.08;98499.13;5067844;28;20029;-68
2023/05/24 06:26:47;;;;;;;5.82;4.85;;;;;;;11.87;81.10;98505.53;5048705;28;20385;-68
2023/05/24 06:29:12;;;;;;;7.30;5.10;;;;;;;11.84;81.24;98509.69;5045235;28;20550;-67
2023/05/24 06:31:38;;;;;;;6.70;4.65;;;;;;;11.84;81.05;98528.94;5061795;28;20081;-67
2023/05/24 06:34:04;;;;;;;7.20;5.00;;;;;;;11.85;81.26;98524.25;5072145;28;20506;-68
2023/05/24 06:36:32;;;;;;;7.32;4.68;;;;;;;11.86;80.68;98534.13;5051401;28;20043;-68
2023/05/24 06:38:58;;;;;;;5.10;3.75;;;;;;;11.84;81.45;98537.19;5049032;28;20055;-67
2023/05/24 06:41:23;;;;;;;6.70;4.25;;;;;;;11.86;81.06;98537.69;5048833;28;20072;-67
2023/05/24 06:43:49;;;;;;;5.05;3.50;;;;;;;11.91;80.67;98542.28;5055148;28;20079;-68
2023/05/24 06:46:14;;;;;;;4.18;2.90;;;;;;;11.92;80.75;98530.16;5049520;28;20017;-67
2023/05/24 06:48:40;;;;;;;3.90;2.35;;;;;;;11.94;80.28;98538.13;5063339;28;20432;-67
2023/05/24 06:51:06;;;;;;;4.25;2.53;;;;;;;11.99;80.20;98540.78;5047437;28;20528;-68
2023/05/24 06:53:31;;;;;;;4.68;2.95;;;;;;;12.07;80.05;98540.06;5046813;28;20024;-68
2023/05/24 06:55:56;;;;;;;4.82;2.80;;;;;;;12.16;79.62;98538.25;5050523;28;20033;-67
2023/05/24 06:58:22;;;;;;;5.03;2.92;;;;;;;12.20;79.43;98533.78;5052130;28;20036;-68
2023/05/24 07:00:48;;;;;;;4.22;2.92;;;;;;;12.25;79.49;98537.56;5050817;28;20108;-68
2023/05/24 07:03:14;;;;;;;6.07;3.60;;;;;;;12.29;79.17;98541.31;5049202;28;20113;-68
2023/05/24 07:05:40;;;;;;;6.88;3.53;;;;;;;12.30;78.75;98545.72;5051162;28;20436;-68
2023/05/24 07:08:05;;;;;;;5.05;3.40;;;;;;;12.36;78.98;98550.78;5050850;28;20087;-67
2023/05/24 07:10:31;;;;;;;4.32;3.42;;;;;;;12.41;78.99;98552.63;5049811;28;20021;-67
2023/05/24 07:12:56;;;;;;;8.52;4.18;;;;;;;12.45;78.89;98548.13;5049076;28;20033;-67
2023/05/24 07:15:21;;;;;;;6.75;4.20;;;;;;;12.46;78.61;98549.75;5051254;28;20035;-68
2023/05/24 07:17:47;;;;;;;5.65;3.40;;;;;;;12.49;78.34;98560.16;5052227;28;20048;-68
2023/05/24 07:20:13;;;;;;;6.28;3.88;;;;;;;12.45;78.04;98570.13;5051487;28;20021;-69
2023/05/24 07:22:39;;;;;;;9.45;4.50;;;;;;;12.50;78.14;98564.53;5052434;28;20033;-69
2023/05/24 07:25:05;;;;;;;6.85;3.72;;;;;;;12.58;78.14;98563.03;5047795;28;20079;-68
2023/05/24 07:27:31;;;;;;;4.47;3.17;;;;;;;12.63;78.07;98568.38;5051867;28;20025;-69
2023/05/24 07:29:57;;;;;;;4.72;2.70;;;;;;;12.68;78.08;98574.91;5051451;28;20025;-68
2023/05/24 07:32:22;;;;;;;3.28;2.20;;;;;;;12.72;77.51;98578.69;5044206;28;20030;-68
2023/05/24 07:34:49;;;;;;;2.47;1.70;;;;;;;12.75;77.38;98581.66;5048778;28;20032;-69
2023/05/24 07:37:15;;;;;;;1.92;1.60;;;;;;;12.80;77.00;98587.06;5054284;28;20482;-68
2023/05/24 07:39:40;;;;;;;1.90;1.50;;;;;;;12.86;76.76;98573.16;5050758;28;20493;-69
2023/05/24 07:42:06;;;;;;;2.72;1.70;;;;;;;12.92;76.01;98577.44;5050742;28;20036;-68
2023/05/24 07:44:31;;;;;;;2.28;1.73;;;;;;;12.95;75.48;98580.41;5050930;28;20468;-68
2023/05/24 07:46:57;;;;;;;4.03;1.48;;;;;;;13.07;75.71;98599.13;5051076;28;20470;-68
2023/05/24 07:49:22;;;;;;;3.05;1.60;;;;;;;13.25;74.80;98588.25;5050111;28;20106;-68
2023/05/24 07:51:48;;;;;;;4.85;1.90;;;;;;;13.36;74.82;98597.13;5053407;28;20029;-69
2023/05/24 07:54:14;;;;;;;3.58;1.50;;;;;;;13.46;74.32;98588.63;5049950;28;20041;-67
2023/05/24 07:56:43;;;;;;;3.80;2.10;;;;;;;13.55;73.44;98591.47;5043512;28;20029;-69
2023/05/24 07:59:08;;;;;;;4.28;2.28;;;;;;;13.58;73.39;98601.84;5050615;28;20033;-68
2023/05/24 08:01:35;;;;;;;3.13;1.80;;;;;;;13.66;72.80;98600.28;5055007;28;20055;-70
2023/05/24 08:04:02;;;;;;;3.08;1.90;;;;;;;13.75;72.14;98598.41;5051490;28;20055;-69
2023/05/24 08:06:33;;;;;;;3.40;1.98;;;;;;;13.87;72.23;98594.25;5050993;28;20021;-68
2023/05/24 08:09:00;;;;;;;2.85;1.90;;;;;;;13.99;72.82;98600.00;5051170;28;20037;-69
2023/05/24 08:11:26;;;;;;;2.47;1.73;;;;;;;14.05;71.45;98595.97;5049615;28;20366;-68
2023/05/24 08:13:51;;;;;;;2.35;1.80;;;;;;;14.16;70.92;98604.78;5052669;28;20108;-68
2023/05/24 08:16:17;;;;;;;2.83;1.80;;;;;;;14.24;71.74;98604.03;5048861;28;20041;-68
2023/05/24 08:18:43;;;;;;;1.80;1.50;;;;;;;14.35;71.13;98598.25;5050458;28;20478;-67
2023/05/24 08:21:08;;;;;;;1.67;1.48;;;;;;;14.37;70.07;98607.81;5049260;28;20013;-67
2023/05/24 08:23:35;;;;;;;1.92;1.60;;;;;;;14.34;70.03;98607.66;5047132;28;20032;-68
2023/05/24 08:26:00;;;;;;;1.80;1.45;;;;;;;14.27;69.93;98617.19;5048856;28;20021;-68
2023/05/24 08:28:26;;;;;;;3.67;1.48;;;;;;;14.20;70.20;98608.56;5048339;28;20074;-69
2023/05/24 08:30:52;;;;;;;4.03;1.70;;;;;;;14.25;70.09;98624.97;5047711;28;20017;-72
2023/05/24 08:33:17;;;;;;;2.10;1.48;;;;;;;14.29;70.33;98622.38;5048706;28;20034;-69
2023/05/24 08:35:43;;;;;;;2.63;1.42;;;;;;;14.27;68.76;98633.75;5053885;28;20039;-69
2023/05/24 08:38:08;;;;;;;2.83;1.60;;;;;;;14.20;68.83;98640.84;5053022;28;20041;-69
2023/05/24 08:40:33;;;;;;;2.33;1.60;;;;;;;14.16;69.32;98637.91;5053067;28;20536;-69
2023/05/24 08:43:00;;;;;;;1.98;1.50;;;;;;;14.22;69.36;98638.59;5054404;28;20033;-70
2023/05/24 08:45:30;;;;;;;2.45;1.70;;;;;;;14.20;68.51;98641.66;5051900;28;20048;-68
2023/05/24 08:47:57;;;;;;;3.67;1.55;;;;;;;14.14;68.68;98649.25;5069374;28;20028;-69
2023/05/24 08:50:22;;;;;;;2.85;1.70;;;;;;;14.10;68.66;98656.53;5042453;28;20121;-69
2023/05/24 08:52:48;;;;;;;2.65;1.83;;;;;;;14.03;69.22;98653.41;5057671;28;20112;-69
2023/05/24 08:55:14;;;;;;;3.13;1.60;;;;;;;13.97;68.89;98660.16;5057189;28;20059;-70
2023/05/24 08:57:41;;;;;;;3.47;2.45;;;;;;;13.92;69.18;98661.13;5069299;28;20028;-69
2023/05/24 09:00:10;;;;;;;3.22;2.10;;;;;;;13.86;69.33;98667.88;5068781;28;20029;-68
2023/05/24 09:02:37;;;;;;;2.38;2.00;;;;;;;13.80;69.29;98663.59;5055586;28;20432;-69
2023/05/24 09:05:04;;;;;;;3.75;1.80;;;;;;;13.73;69.55;98671.50;5056992;28;20037;-69
2023/05/24 09:07:30;;;;;;;3.67;1.85;;;;;;;13.70;69.81;98678.47;5046595;28;20033;-68
2023/05/24 09:09:59;;;;;;;3.33;2.22;;;;;;;13.70;69.58;98686.72;5051092;28;20490;-69
2023/05/24 09:12:29;;;;;;;4.03;2.40;;;;;;;13.57;69.85;98682.06;5055025;28;20033;-69
2023/05/24 09:14:55;;;;;;;;;;;;;;;13.47;70.11;98683.13;5055658;28;20083;-69
2023/05/24 09:17:21;;;;;;;3.22;2.60;;;;;;;13.37;70.17;98684.13;5052786;28;19916;-70
2023/05/24 09:19:46;;;;;;;3.20;2.65;;;;;;;13.32;70.52;98687.81;5036422;28;20028;-70
2023/05/24 09:22:13;;;;;;;2.90;2.58;;;;;;;13.30;70.51;98689.25;5044847;28;20025;-69
2023/05/24 09:24:46;;;;;;;4.15;2.67;;;;;;;13.30;70.92;98690.03;5068332;28;20035;-69
2023/05/24 09:27:14;;;;;;;4.38;2.80;;;;;;;13.31;70.95;98691.69;5053355;28;20025;-69
2023/05/24 09:29:40;;;;;;;3.78;2.75;;;;;;;13.32;70.97;98692.50;5050945;28;20054;-69
2023/05/24 09:32:08;;;;;;;4.70;3.00;;;;;;;13.27;71.01;98689.88;5054458;28;20080;-69
2023/05/24 09:34:41;;;;;;;4.88;3.00;;;;;;;13.27;71.27;98687.91;5062852;28;20029;-69
2023/05/24 09:37:17;;;;;;;4.22;3.53;;;;;;;13.28;70.99;98703.31;5051093;28;20036;-69
2023/05/24 09:39:43;;;;;;;3.13;2.83;;;;;;;13.33;71.21;98702.41;5053559;28;20112;-69
2023/05/24 09:42:27;;;;;;;6.07;3.10;;;;;;;13.37;71.42;98714.44;5053023;28;20037;-67
2023/05/24 09:45:09;;;;;;;4.57;2.70;;;;;;;13.37;71.19;98709.72;5052493;28;20113;-70
2023/05/24 09:47:36;;;;;;;3.22;2.85;;;;;;;13.40;71.42;98706.34;5055439;28;20075;-70
2023/05/24 09:50:03;;;;;;;5.32;3.17;;;;;;;13.38;71.32;98711.38;5051318;28;20037;-70
2023/05/24 09:52:29;;;;;;;3.88;3.20;;;;;;;13.37;71.05;98718.00;5054238;28;20025;-70
2023/05/24 09:54:55;;;;;;;4.07;2.80;;;;;;;13.40;71.18;98711.88;5051403;28;20094;-70
2023/05/24 09:57:21;;;;;;;5.07;3.83;;;;;;;13.48;71.37;98718.63;5051940;28;20350;-70
2023/05/24 09:59:48;;;;;;;5.85;3.70;;;;;;;13.52;71.40;98719.63;5051990;28;20132;-70
2023/05/24 10:02:14;;;;;;;5.05;3.70;;;;;;;13.59;71.15;98719.22;5054193;28;20021;-71
2023/05/24 10:04:40;;;;;;;4.63;3.40;;;;;;;13.66;71.05;98722.34;5052377;28;20461;-70
2023/05/24 10:07:07;;;;;;;4.55;3.50;;;;;;;13.73;71.11;98716.44;5052471;28;20074;-71
2023/05/24 10:09:34;;;;;;;4.13;3.30;;;;;;;13.84;71.17;98720.59;5052071;28;20033;-70
2023/05/24 10:12:06;;;;;;;4.65;3.17;;;;;;;13.98;70.95;98719.69;5050312;28;20072;-69
2023/05/24 10:14:36;;;;;;;3.78;3.33;;;;;;;14.09;70.63;98718.31;5050041;28;20501;-70
2023/05/24 10:17:05;;;;;;;4.95;3.33;;;;;;;14.13;69.64;98716.59;5051121;28;20436;-70
2023/05/24 10:19:34;;;;;;;3.20;2.90;;;;;;;14.13;69.81;98724.03;5050882;28;20100;-70
2023/05/24 10:22:05;;;;;;;3.00;2.65;;;;;;;14.16;70.09;98726.16;5050671;28;20096;-70
2023/05/24 10:24:47;;;;;;;4.88;3.03;;;;;;;14.25;69.97;98723.47;5050430;28;20116;-71
2023/05/24 10:27:16;;;;;;;4.65;3.50;;;;;;;14.34;69.74;98720.78;5050887;28;20029;-70
2023/05/24 10:30:00;;;;;;;4.53;2.85;;;;;;;14.38;69.79;98719.00;5051341;28;20098;-70
2023/05/24 10:32:30;;;;;;;4.10;2.95;;;;;;;14.41;69.38;98732.97;5051935;28;20102;-69
2023/05/24 10:34:58;;;;;;;3.72;3.00;;;;;;;14.38;69.50;98732.81;5050546;28;20021;-69
2023/05/24 10:37:25;;;;;;;5.22;3.65;;;;;;;14.41;69.33;98730.22;5051504;28;20524;-69
2023/05/24 10:39:51;;;;;;;6.68;4.05;;;;;;;14.48;69.78;98726.19;5051057;28;20098;-70
2023/05/24 10:42:16;;;;;;;6.70;4.80;;;;;;;14.53;69.67;98731.59;5047888;28;20036;-69
2023/05/24 10:44:42;;;;;;;5.78;2.85;;;;;;;14.51;69.08;98723.63;5049327;28;20112;-68
2023/05/24 10:47:11;;;;;;;5.13;3.28;;;;;;;14.49;68.92;98734.16;5051334;28;20064;-69
2023/05/24 10:49:38;;;;;;;5.55;2.80;;;;;;;14.48;69.03;98737.25;5051391;28;20062;-69
2023/05/24 10:52:08;;;;;;;5.68;3.08;;;;;;;14.50;68.76;98724.75;5048571;28;20041;-70
2023/05/24 10:54:35;;;;;;;5.63;3.58;;;;;;;14.50;68.50;98732.22;5048693;28;20029;-70
2023/05/24 10:57:04;;;;;;;5.35;3.95;;;;;;;14.53;68.52;98726.06;5051373;28;20540;-70
2023/05/24 10:59:36;;;;;;;6.57;4.28;;;;;;;14.54;67.93;98742.31;5050990;28;20029;-70
2023/05/24 11:02:03;;;;;;;5.60;3.55;;;;;;;14.57;68.36;98730.63;5051995;28;20118;-70
2023/05/24 11:04:35;;;;;;;5.45;4.05;;;;;;;14.62;68.05;98734.41;5051568;28;20083;-69
2023/05/24 11:07:04;;;;;;;7.97;4.32;;;;;;;14.70;68.23;98742.75;5051677;28;20083;-69
2023/05/24 11:09:30;;;;;;;6.75;4.40;;;;;;;14.86;67.98;98737.66;5051570;28;20497;-69
2023/05/24 11:12:02;;;;;;;6.80;3.83;;;;;;;14.93;67.71;98733.59;5051573;28;20088;-69
2023/05/24 11:14:30;;;;;;;5.53;4.28;;;;;;;14.90;67.48;98726.78;5051565;28;20047;-69
2023/05/24 11:16:56;;;;;;;5.72;4.30;;;;;;;14.93;67.77;98737.19;5051655;28;20021;-69
2023/05/24 11:19:44;;;;;;;4.57;4.00;;;;;;;14.93;67.71;98731.66;5051553;28;20066;-70
2023/05/24 11:22:12;;;;;;;7.07;4.05;;;;;;;14.93;67.49;98730.84;5051678;28;20047;-69
2023/05/24 11:24:40;;;;;;;4.40;3.60;;;;;;;14.87;67.05;98743.97;5051489;28;20485;-69
2023/05/24 11:27:06;;;;;;;4.47;4.05;;;;;;;14.84;67.50;98739.91;5051442;28;20082;-70
2023/05/24 11:29:31;;;;;;;6.18;3.55;;;;;;;14.83;67.33;98735.53;5051496;28;20029;-70